Time;durP1;ratioP1;P1;durP2;ratioP2;P2;SDS_P1;SDS_P2;PMS_P1;PMS_P2;Temp;Humidity;BMP_temperature;BMP_pressure;BME280_temperature;BME280_humidity;BME280_pressure;Samples;Min_cycle;Max_cycle;Signal;HPM_P1;HPM_P2
2022/05/04 00:01:43;;;;;;;3.90;3.47;;;;;;;10.72;69.68;96039.69;10352140;28;102238;-65
2022/05/04 00:06:46;;;;;;;7.23;3.63;;;;;;;10.52;69.99;96039.06;10355537;28;96912;-65
2022/05/04 00:11:48;;;;;;;5.40;3.95;;;;;;;10.35;70.46;96037.28;10363709;28;97148;-65
2022/05/04 00:16:53;;;;;;;4.53;3.90;;;;;;;10.26;70.73;96040.81;10361278;28;97505;-65
2022/05/04 00:21:56;;;;;;;4.83;3.73;;;;;;;10.08;71.13;96041.66;10350853;28;98756;-66
2022/05/04 00:26:58;;;;;;;4.32;3.33;;;;;;;9.95;70.92;96046.41;10347196;28;96881;-65
2022/05/04 00:32:03;;;;;;;4.07;3.40;;;;;;;9.74;71.70;96041.47;10349450;28;96901;-65
2022/05/04 00:37:06;;;;;;;4.30;3.40;;;;;;;9.62;71.97;96051.28;10354569;28;98661;-65
2022/05/04 00:42:11;;;;;;;3.70;3.10;;;;;;;9.55;71.64;96048.44;10358300;28;96750;-66
2022/05/04 00:47:15;;;;;;;4.70;3.13;;;;;;;9.42;71.76;96045.31;10354180;28;96877;-65
2022/05/04 00:52:19;;;;;;;8.50;3.17;;;;;;;9.35;72.07;96045.09;10343407;28;97004;-65
2022/05/04 00:58:54;;;;;;;3.95;3.40;;;;;;;9.20;71.95;96056.97;10345135;28;98868;-66
2022/05/04 01:02:47;;;;;;;4.18;3.47;;;;;;;9.05;72.67;96049.59;10344790;28;98482;-65
2022/05/04 01:07:52;;;;;;;4.38;3.63;;;;;;;9.18;72.82;96048.47;10338855;28;96728;-66
2022/05/04 01:12:56;;;;;;;4.80;3.30;;;;;;;9.13;72.51;96048.06;10347022;28;97507;-66
2022/05/04 01:18:00;;;;;;;4.90;3.00;;;;;;;8.93;72.92;96045.53;10340030;28;97223;-66
2022/05/04 01:23:05;;;;;;;5.30;3.10;;;;;;;8.91;72.65;96047.44;10336406;28;97419;-66
2022/05/04 01:28:08;;;;;;;4.90;3.50;;;;;;;8.87;72.87;96061.72;10337025;28;99291;-66
2022/05/04 01:33:11;;;;;;;4.03;3.33;;;;;;;8.88;73.12;96052.94;10340018;28;96868;-66
2022/05/04 01:38:15;;;;;;;5.80;3.90;;;;;;;8.97;72.80;96046.91;10345082;28;97091;-66
2022/05/04 01:43:18;;;;;;;5.18;3.30;;;;;;;9.10;72.30;96055.19;10342668;28;98650;-66
2022/05/04 01:48:21;;;;;;;5.03;3.35;;;;;;;9.20;72.10;96051.75;10332304;28;97019;-66
2022/05/04 01:53:25;;;;;;;4.38;3.53;;;;;;;9.23;72.23;96051.47;10345637;28;100296;-66
2022/05/04 01:58:28;;;;;;;5.17;2.83;;;;;;;9.30;71.57;96049.91;10346789;28;96737;-65
2022/05/04 02:03:31;;;;;;;3.95;2.95;;;;;;;9.35;71.52;96055.53;10357136;28;96811;-66
2022/05/04 02:08:35;;;;;;;3.55;2.90;;;;;;;9.34;71.41;96056.47;10343971;28;97032;-66
2022/05/04 02:13:39;;;;;;;3.40;3.10;;;;;;;9.24;72.16;96053.09;10339845;28;97614;-66
2022/05/04 02:18:41;;;;;;;4.75;3.33;;;;;;;9.23;71.76;96052.28;10352067;28;96812;-66
2022/05/04 02:23:46;;;;;;;3.88;2.95;;;;;;;9.27;72.02;96050.19;10355624;28;97945;-66
2022/05/04 02:28:48;;;;;;;5.13;2.83;;;;;;;9.26;71.94;96051.16;10345538;28;97122;-68
2022/05/04 02:33:51;;;;;;;3.90;3.15;;;;;;;9.30;71.97;96045.53;10338727;28;98515;-66
2022/05/04 02:38:55;;;;;;;4.32;3.40;;;;;;;9.36;72.32;96051.13;10347387;28;98270;-67
2022/05/04 02:43:59;;;;;;;3.53;2.93;;;;;;;9.33;72.52;96044.41;10338092;28;98406;-66
2022/05/04 02:49:02;;;;;;;7.15;4.03;;;;;;;9.09;72.51;96043.16;10334033;28;99027;-66
2022/05/04 02:54:06;;;;;;;6.65;3.63;;;;;;;8.94;73.52;96041.97;10341572;28;97214;-66
2022/05/04 02:59:09;;;;;;;4.35;3.45;;;;;;;8.96;73.91;96036.63;10353301;28;97300;-66
2022/05/04 03:04:11;;;;;;;4.28;3.05;;;;;;;9.02;73.05;96042.09;10353472;28;97736;-66
2022/05/04 03:09:17;;;;;;;5.25;3.20;;;;;;;9.06;73.28;96040.81;10340848;28;96758;-66
2022/05/04 03:14:20;;;;;;;4.53;3.33;;;;;;;9.11;73.10;96048.22;10352552;28;100415;-66
2022/05/04 03:19:24;;;;;;;4.68;3.67;;;;;;;9.03;73.14;96050.72;10348506;28;97246;-67
2022/05/04 03:24:28;;;;;;;4.15;3.55;;;;;;;8.90;73.95;96051.03;10333130;28;96888;-66
2022/05/04 03:29:32;;;;;;;5.53;3.73;;;;;;;8.77;74.67;96042.69;10350099;28;96820;-66
2022/05/04 03:34:36;;;;;;;4.90;4.00;;;;;;;8.68;74.52;96047.78;10357439;28;96777;-66
2022/05/04 03:39:40;;;;;;;4.22;3.58;;;;;;;8.59;75.04;96048.63;10356749;28;96880;-66
2022/05/04 03:44:43;;;;;;;4.77;3.90;;;;;;;8.57;75.03;96045.34;10348579;28;100444;-66
2022/05/04 03:49:46;;;;;;;5.30;3.70;;;;;;;8.51;75.37;96043.28;10338756;28;96912;-66
2022/05/04 03:54:51;;;;;;;6.55;3.88;;;;;;;8.54;75.48;96048.22;10349304;28;97422;-66
2022/05/04 03:59:54;;;;;;;4.65;3.70;;;;;;;8.40;75.88;96054.69;10365622;28;96868;-66
2022/05/04 04:04:57;;;;;;;5.22;4.00;;;;;;;8.36;76.00;96053.34;10342750;28;96950;-66
2022/05/04 04:10:02;;;;;;;6.18;4.30;;;;;;;8.34;75.86;96060.44;10363881;28;99321;-66
2022/05/04 04:15:05;;;;;;;4.10;3.70;;;;;;;8.35;76.34;96062.91;10355515;28;100059;-66
2022/05/04 04:25:31;;;;;;;6.38;4.20;;;;;;;8.26;76.84;96068.94;10357823;28;96901;-67
2022/05/04 04:30:34;;;;;;;6.30;3.90;;;;;;;8.33;76.26;96075.25;10353062;28;96896;-66
2022/05/04 04:35:37;;;;;;;5.55;4.43;;;;;;;8.31;76.66;96074.56;10358212;28;97370;-67
2022/05/04 04:40:42;;;;;;;4.78;4.07;;;;;;;8.30;76.70;96069.50;10342757;28;98817;-67
2022/05/04 04:45:45;;;;;;;6.40;3.90;;;;;;;8.44;76.32;96065.66;10357108;28;96751;-66
2022/05/04 04:50:49;;;;;;;7.53;3.67;;;;;;;8.55;76.03;96070.69;10357320;28;98380;-66
2022/05/04 04:55:54;;;;;;;4.32;3.50;;;;;;;8.66;75.74;96067.13;10347357;28;97358;-66
2022/05/04 05:00:57;;;;;;;7.00;3.83;;;;;;;8.74;75.36;96064.63;10359674;28;98291;-68
2022/05/04 05:06:00;;;;;;;4.10;3.03;;;;;;;8.81;75.36;96070.09;10356069;28;96922;-66
2022/05/04 05:11:04;;;;;;;5.93;3.55;;;;;;;8.80;75.11;96071.06;10361814;28;96864;-67
2022/05/04 05:16:11;;;;;;;4.20;3.60;;;;;;;8.82;74.89;96069.97;10353804;28;96860;-67
2022/05/04 05:21:14;;;;;;;4.05;3.40;;;;;;;8.85;74.83;96079.28;10337246;28;97115;-66
2022/05/04 05:26:18;;;;;;;5.22;3.63;;;;;;;8.90;74.79;96079.69;10350671;28;96906;-67
2022/05/04 05:31:21;;;;;;;5.03;3.70;;;;;;;8.93;75.03;96087.19;10345010;28;100237;-66
2022/05/04 05:36:24;;;;;;;4.50;3.20;;;;;;;8.98;74.59;96085.00;10341147;28;100255;-66
2022/05/04 05:41:28;;;;;;;4.15;3.35;;;;;;;9.05;74.50;96093.88;10343482;28;96964;-67
2022/05/04 05:46:31;;;;;;;6.00;4.33;;;;;;;9.15;74.26;96090.44;10341099;28;97416;-67
2022/05/04 05:51:35;;;;;;;6.47;3.85;;;;;;;9.19;74.17;96091.78;10352711;28;98621;-67
2022/05/04 05:56:39;;;;;;;4.88;3.55;;;;;;;9.25;74.34;96086.03;10352484;28;98960;-67
2022/05/04 06:01:43;;;;;;;4.75;4.05;;;;;;;9.37;73.96;96090.09;10356326;28;97037;-66
2022/05/04 06:06:46;;;;;;;5.53;4.55;;;;;;;9.50;73.91;96086.34;10342281;28;97844;-66
2022/05/04 06:11:51;;;;;;;7.60;5.03;;;;;;;9.71;73.18;96091.31;10358880;28;98680;-66
2022/05/04 06:16:55;;;;;;;8.93;4.50;;;;;;;9.98;73.14;96100.91;10353267;28;97934;-67
2022/05/04 06:21:58;;;;;;;9.07;4.47;;;;;;;10.23;72.72;96097.59;10343116;28;97873;-66
2022/05/04 06:27:02;;;;;;;7.50;4.47;;;;;;;10.46;72.97;96102.34;10335252;28;96902;-66
2022/05/04 06:37:41;;;;;;;5.40;4.70;;;;;;;10.93;72.76;96104.66;10277107;28;100312;-66
2022/05/04 06:42:46;;;;;;;4.70;4.20;;;;;;;11.03;72.71;96107.16;10284592;28;96870;-67
2022/05/04 06:47:49;;;;;;;5.37;4.10;;;;;;;11.10;72.43;96110.81;10282091;28;97717;-67
2022/05/04 06:52:52;;;;;;;4.88;4.07;;;;;;;11.24;72.58;96101.59;10283624;28;97489;-66
2022/05/04 06:57:56;;;;;;;5.35;4.57;;;;;;;11.52;72.52;96109.28;10284436;28;97483;-67
2022/05/04 07:02:59;;;;;;;6.63;4.53;;;;;;;11.85;71.99;96105.00;10288225;28;99063;-66
2022/05/04 07:08:02;;;;;;;6.65;4.30;;;;;;;12.10;71.22;96100.63;10324037;28;96917;-66
2022/05/04 07:13:07;;;;;;;6.93;4.57;;;;;;;12.25;70.94;96105.25;10338939;28;98178;-66
2022/05/04 07:18:09;;;;;;;5.45;3.50;;;;;;;12.33;70.16;96107.03;10347783;28;96817;-66
2022/05/04 07:23:12;;;;;;;5.25;3.97;;;;;;;12.36;69.73;96099.69;10345691;28;97157;-66
2022/05/04 07:28:17;;;;;;;4.85;3.22;;;;;;;12.39;70.06;96101.97;10345066;28;96759;-66
2022/05/04 07:33:19;;;;;;;4.63;3.80;;;;;;;12.52;69.42;96105.91;10347602;28;97081;-66
2022/05/04 07:38:23;;;;;;;6.57;3.55;;;;;;;12.74;69.22;96097.41;10345834;28;96907;-66
2022/05/04 07:43:27;;;;;;;3.95;3.35;;;;;;;12.98;68.80;96099.22;10343153;28;96948;-66
2022/05/04 07:48:30;;;;;;;3.92;3.33;;;;;;;13.23;68.52;96107.03;10347063;28;97044;-66
2022/05/04 07:53:33;;;;;;;5.53;3.17;;;;;;;13.54;67.95;96104.50;10345878;28;99847;-66
2022/05/04 07:58:38;;;;;;;3.90;3.10;;;;;;;13.79;68.10;96109.63;10340787;28;96704;-67
2022/05/04 08:09:01;;;;;;;3.30;2.92;;;;;;;14.25;65.96;96088.72;10346649;28;99916;-66
2022/05/04 08:14:06;;;;;;;3.60;3.20;;;;;;;14.62;65.51;96095.03;10341258;28;96961;-66
2022/05/04 08:19:09;;;;;;;4.88;3.10;;;;;;;15.07;64.97;96093.34;10357498;28;98538;-68
2022/05/04 08:24:12;;;;;;;4.50;3.72;;;;;;;15.57;63.49;96087.56;10345919;28;96770;-67
2022/05/04 08:29:19;;;;;;;4.35;3.75;;;;;;;16.06;62.63;96086.97;10341716;28;96800;-66
2022/05/04 08:34:21;;;;;;;4.20;3.58;;;;;;;16.42;62.25;96086.13;10343026;28;97787;-67
2022/05/04 08:39:24;;;;;;;5.53;3.60;;;;;;;16.76;60.73;96092.53;10351752;28;99936;-67
2022/05/04 08:44:28;;;;;;;5.15;3.38;;;;;;;16.95;60.75;96086.63;10353222;28;96945;-66
2022/05/04 08:49:33;;;;;;;7.80;3.92;;;;;;;16.90;60.01;96091.66;10340929;28;96847;-67
2022/05/04 08:54:36;;;;;;;4.35;3.10;;;;;;;16.86;59.59;96087.75;10346852;28;96927;-67
2022/05/04 08:59:41;;;;;;;4.38;3.45;;;;;;;16.94;58.92;96085.00;10346615;28;96997;-66
2022/05/04 09:04:45;;;;;;;3.83;3.42;;;;;;;17.02;58.10;96075.28;10340367;28;97027;-66
2022/05/04 09:09:47;;;;;;;6.20;3.45;;;;;;;17.01;57.61;96079.75;10343568;28;96902;-66
2022/05/04 09:14:52;;;;;;;3.85;3.45;;;;;;;17.15;58.81;96075.41;10344486;28;97152;-67
2022/05/04 09:25:18;;;;;;;4.85;3.47;;;;;;;17.75;56.88;96073.06;10354863;28;96821;-67
2022/05/04 09:30:28;;;;;;;3.22;2.80;;;;;;;18.05;55.55;96065.69;10343696;28;96903;-66
2022/05/04 09:35:33;;;;;;;3.55;3.00;;;;;;;18.37;54.10;96063.31;10344202;28;97135;-67
2022/05/04 09:46:00;;;;;;;3.35;2.75;;;;;;;18.53;55.87;96078.00;10342690;28;97518;-67
2022/05/04 09:51:05;;;;;;;2.55;2.35;;;;;;;18.67;52.33;96062.94;10342284;28;97981;-67
2022/05/04 09:56:09;;;;;;;3.78;2.63;;;;;;;18.55;49.92;96048.69;10339235;28;97026;-67
2022/05/04 10:01:13;;;;;;;3.03;2.40;;;;;;;18.84;52.31;96052.78;10341364;28;96837;-67
2022/05/04 10:06:17;;;;;;;3.67;2.10;;;;;;;19.05;50.15;96052.59;10342882;28;97110;-67
2022/05/04 10:11:21;;;;;;;3.22;2.63;;;;;;;19.02;50.29;96060.16;10339323;28;97128;-67
2022/05/04 10:16:27;;;;;;;3.58;2.70;;;;;;;18.98;49.86;96058.91;10340616;28;96936;-67
2022/05/04 10:21:31;;;;;;;4.15;2.60;;;;;;;18.71;48.19;96058.91;10342149;28;96886;-67
2022/05/04 10:26:35;;;;;;;4.43;2.00;;;;;;;18.06;49.97;96059.38;10341912;28;96982;-67
2022/05/04 10:31:39;;;;;;;2.78;1.50;;;;;;;17.44;48.64;96055.88;10336887;28;96734;-67
2022/05/04 10:36:46;;;;;;;1.38;1.27;;;;;;;17.30;46.56;96057.63;10341910;28;96812;-67
2022/05/04 10:41:50;;;;;;;2.58;1.30;;;;;;;17.30;45.93;96062.91;10341385;28;96828;-66
2022/05/04 10:46:54;;;;;;;1.88;1.30;;;;;;;17.49;44.12;96060.56;10337738;28;96819;-67
2022/05/04 10:52:05;;;;;;;3.35;1.70;;;;;;;17.71;45.71;96051.50;10340278;28;97012;-67
2022/05/04 10:57:09;;;;;;;1.57;1.40;;;;;;;18.09;45.59;96045.78;10343224;28;97042;-66
2022/05/04 11:02:19;;;;;;;2.40;1.50;;;;;;;18.27;44.34;96039.09;10336647;28;96843;-67
2022/05/04 11:07:28;;;;;;;1.77;1.20;;;;;;;18.50;43.84;96044.03;10338130;28;97028;-67
2022/05/04 11:12:31;;;;;;;1.90;1.33;;;;;;;18.25;44.18;96044.59;10341233;28;97443;-67
2022/05/04 11:17:35;;;;;;;1.30;0.75;;;;;;;17.62;44.73;96039.50;10340907;28;97240;-67
2022/05/04 11:22:42;;;;;;;1.15;0.82;;;;;;;17.51;44.82;96026.88;10335689;28;97030;-67
2022/05/04 11:27:52;;;;;;;3.63;1.80;;;;;;;17.75;46.26;96023.69;10340442;28;96834;-67
2022/05/04 11:33:00;;;;;;;4.28;1.90;;;;;;;17.97;46.89;96020.94;10341865;28;96730;-67
2022/05/04 11:38:04;;;;;;;3.28;1.50;;;;;;;18.38;46.49;96008.63;10337019;28;96845;-66
2022/05/04 11:43:07;;;;;;;2.23;1.50;;;;;;;18.98;45.43;96016.56;10351643;28;97713;-67
2022/05/04 11:48:12;;;;;;;2.80;1.40;;;;;;;18.86;45.77;96019.00;10342642;28;96802;-67
2022/05/04 11:53:16;;;;;;;2.45;1.80;;;;;;;18.60;46.04;96003.94;10342887;28;98496;-67
2022/05/04 11:58:19;;;;;;;2.80;2.10;;;;;;;19.14;45.65;96000.25;10360786;28;97193;-66
2022/05/04 12:03:24;;;;;;;2.75;1.88;;;;;;;19.62;42.89;95997.22;10345994;28;97942;-66
2022/05/04 12:08:28;;;;;;;2.45;1.55;;;;;;;19.89;43.93;95991.84;10345912;28;97150;-67
2022/05/04 12:13:31;;;;;;;1.92;1.50;;;;;;;19.46;44.01;95991.59;10343777;28;96850;-66
2022/05/04 12:18:38;;;;;;;3.42;1.77;;;;;;;19.40;43.84;95994.06;10347705;28;96842;-66
2022/05/04 12:23:43;;;;;;;4.03;1.80;;;;;;;19.48;44.00;95993.00;10346357;28;96842;-66
2022/05/04 12:33:08;;;;;;;3.03;1.73;;;;;;;19.54;43.53;95996.63;10342350;28;96958;-67
2022/05/04 12:34:16;;;;;;;1.80;1.67;;;;;;;20.18;43.04;95992.25;10355979;28;96865;-66
2022/05/04 12:39:22;;;;;;;1.95;1.58;;;;;;;20.57;43.03;95988.50;10344804;28;96929;-67
2022/05/04 12:44:25;;;;;;;2.70;1.90;;;;;;;20.24;41.55;95991.41;10343031;28;97008;-66
2022/05/04 12:49:30;;;;;;;3.03;1.93;;;;;;;19.80;42.73;95980.63;10340835;28;96952;-66
2022/05/04 12:54:33;;;;;;;4.18;1.95;;;;;;;19.88;42.67;95979.59;10346332;28;96854;-66
2022/05/04 12:59:36;;;;;;;3.00;1.70;;;;;;;19.32;44.04;95972.28;10344046;28;96848;-66
2022/05/04 13:04:46;;;;;;;3.90;1.92;;;;;;;19.09;44.69;95978.03;10339527;28;97278;-66
2022/05/04 13:09:50;;;;;;;3.13;1.88;;;;;;;19.14;43.69;95984.38;10343984;28;96753;-67
2022/05/04 13:14:53;;;;;;;2.63;1.85;;;;;;;19.25;45.10;95975.75;10343961;28;96879;-66
2022/05/04 13:19:58;;;;;;;2.92;1.90;;;;;;;19.46;47.86;95983.66;10340870;28;96737;-66
2022/05/04 13:25:02;;;;;;;4.75;1.95;;;;;;;19.94;47.26;95984.06;10343579;28;97565;-67
2022/05/04 13:30:06;;;;;;;2.90;2.10;;;;;;;20.40;49.49;95992.72;10363413;28;100141;-67
2022/05/04 13:35:11;;;;;;;4.32;2.10;;;;;;;20.56;50.06;95975.44;10350808;28;96920;-67
2022/05/04 13:40:14;;;;;;;;;;;;;;;20.42;48.86;95971.28;10342476;28;96986;-66
2022/05/04 13:45:23;;;;;;;3.35;1.83;;;;;;;19.93;47.01;95977.13;10343473;28;97087;-67
2022/05/04 13:55:50;;;;;;;5.13;2.13;;;;;;;18.77;46.66;95983.16;10338868;28;97309;-66
2022/05/04 14:00:55;;;;;;;2.25;1.70;;;;;;;18.41;48.13;95979.09;10342369;28;96899;-66
2022/05/04 14:05:59;;;;;;;;;;;;;;;17.98;48.45;95998.78;10343152;28;97048;-66
2022/05/04 14:11:03;;;;;;;3.10;2.00;;;;;;;17.13;51.07;96004.31;10339445;28;99878;-67
2022/05/04 14:16:06;;;;;;;2.90;2.30;;;;;;;16.65;53.07;96000.72;10353624;28;96928;-66
2022/05/04 14:21:11;;;;;;;3.03;2.50;;;;;;;16.73;53.94;96000.59;10342537;28;97988;-67
2022/05/04 14:26:14;;;;;;;3.83;2.20;;;;;;;16.67;54.55;95998.72;10337647;28;97147;-67
2022/05/04 14:31:17;;;;;;;3.88;2.28;;;;;;;16.80;55.18;95999.66;10339380;28;96746;-66
2022/05/04 14:36:21;;;;;;;4.88;2.40;;;;;;;17.03;54.11;95998.56;10341592;28;97017;-66
2022/05/04 14:41:26;;;;;;;3.45;2.53;;;;;;;17.06;55.14;96003.47;10339775;28;101744;-66
2022/05/04 14:46:28;;;;;;;4.68;2.58;;;;;;;17.28;55.48;96006.81;10338307;28;96913;-66
2022/05/04 14:51:33;;;;;;;4.13;3.03;;;;;;;17.63;56.38;96009.44;10343257;28;96877;-66
2022/05/04 14:56:36;;;;;;;6.20;3.95;;;;;;;17.94;57.34;96011.59;10341445;28;96734;-66
2022/05/04 15:01:41;;;;;;;5.27;3.23;;;;;;;18.42;59.69;96013.28;10337306;28;97258;-66
2022/05/04 15:06:46;;;;;;;5.13;2.83;;;;;;;18.62;59.88;96023.06;10342161;28;97036;-66
2022/05/04 15:11:53;;;;;;;4.03;3.00;;;;;;;18.76;62.11;96022.06;10340690;28;96827;-66
2022/05/04 15:16:56;;;;;;;4.35;3.17;;;;;;;18.57;61.95;96015.75;10336136;28;96763;-66
2022/05/04 15:22:00;;;;;;;5.93;3.58;;;;;;;18.75;60.39;96009.84;10341753;28;96716;-66
2022/05/04 15:27:04;;;;;;;4.82;3.17;;;;;;;19.02;60.13;96012.50;10348681;28;96822;-66
2022/05/04 15:32:07;;;;;;;6.17;2.80;;;;;;;18.96;58.63;96018.59;10343837;28;96922;-66
2022/05/04 15:37:11;;;;;;;3.17;2.17;;;;;;;18.72;56.70;96010.22;10345837;28;97949;-66
2022/05/04 15:42:14;;;;;;;3.20;2.08;;;;;;;18.59;57.08;96026.94;10369106;28;98130;-67
2022/05/04 15:47:17;;;;;;;2.45;1.45;;;;;;;18.30;58.03;96034.22;10374193;28;98040;-66
2022/05/04 15:52:21;;;;;;;1.48;1.38;;;;;;;18.45;58.37;96026.13;10346542;28;97952;-66
2022/05/04 15:57:25;;;;;;;2.85;1.55;;;;;;;18.65;58.61;96020.00;10384193;28;97035;-66
2022/05/04 16:07:46;;;;;;;2.38;1.70;;;;;;;18.45;56.56;96023.47;10342585;28;96950;-66
2022/05/04 16:12:49;;;;;;;3.58;1.80;;;;;;;18.84;55.01;96016.53;10353944;28;97040;-66
2022/05/04 16:23:14;;;;;;;2.53;1.80;;;;;;;19.04;56.50;96005.97;10369912;28;97000;-67
2022/05/04 16:28:17;;;;;;;2.45;2.05;;;;;;;18.81;55.78;96001.09;10358781;28;96757;-68
2022/05/04 16:33:40;;;;;;;3.35;2.20;;;;;;;18.53;57.02;95995.19;10364738;28;98842;-66
2022/05/04 16:38:44;;;;;;;3.20;1.95;;;;;;;17.86;56.62;95997.75;10348272;28;97559;-66
2022/05/04 16:43:47;;;;;;;2.35;1.70;;;;;;;17.62;57.78;95991.94;10355290;28;96925;-66
2022/05/04 16:48:50;;;;;;;2.13;1.67;;;;;;;17.54;59.70;95989.47;10351135;28;96877;-67
2022/05/04 16:53:55;;;;;;;3.10;1.80;;;;;;;17.26;57.41;95981.63;10353690;28;96930;-66
2022/05/04 16:59:01;;;;;;;2.20;1.73;;;;;;;16.81;57.55;95990.75;10364758;28;96968;-67
2022/05/04 17:04:04;;;;;;;3.10;1.77;;;;;;;16.40;58.68;95985.31;10342666;28;97259;-67
2022/05/04 17:09:09;;;;;;;3.50;2.63;;;;;;;16.44;59.37;96002.38;10359773;28;97176;-66
2022/05/04 17:14:13;;;;;;;3.67;2.72;;;;;;;16.45;60.89;96009.31;10354182;28;96825;-68
2022/05/04 17:19:16;;;;;;;2.73;2.00;;;;;;;16.41;62.12;96000.94;10366903;28;96893;-66
2022/05/04 17:24:20;;;;;;;2.92;2.53;;;;;;;16.21;62.58;96006.03;10359721;28;97578;-66
2022/05/04 17:29:24;;;;;;;4.18;2.40;;;;;;;15.98;63.33;96016.78;10349642;28;100085;-66
2022/05/04 17:39:49;;;;;;;3.85;2.63;;;;;;;15.73;64.46;96045.25;10380940;28;96944;-66
2022/05/04 17:44:52;;;;;;;6.20;2.80;;;;;;;15.48;64.82;96060.53;10347365;28;96822;-65
2022/05/04 17:49:56;;;;;;;4.93;3.03;;;;;;;15.35;65.68;96063.78;10344665;28;97055;-66
2022/05/04 17:55:00;;;;;;;2.72;2.30;;;;;;;15.18;65.43;96073.66;10366271;28;96829;-66
2022/05/04 18:00:04;;;;;;;3.78;2.80;;;;;;;14.75;66.57;96083.94;10363636;28;96951;-65
2022/05/04 18:05:08;;;;;;;3.22;2.83;;;;;;;14.49;67.59;96089.59;10363611;28;97162;-65
2022/05/04 18:10:12;;;;;;;4.28;2.78;;;;;;;14.51;66.95;96095.47;10372034;28;96896;-65
2022/05/04 18:15:15;;;;;;;5.47;2.80;;;;;;;14.43;67.46;96111.28;10355321;28;97220;-66
2022/05/04 18:20:18;;;;;;;6.82;3.08;;;;;;;14.28;67.07;96119.06;10358928;28;97922;-66
2022/05/04 18:25:23;;;;;;;3.88;2.35;;;;;;;14.10;68.24;96129.84;10365181;28;96849;-66
2022/05/04 18:30:25;;;;;;;4.07;2.50;;;;;;;13.83;67.74;96131.97;10344320;28;97947;-65
2022/05/04 18:35:29;;;;;;;6.40;3.40;;;;;;;13.78;68.64;96139.53;10346184;28;97601;-66
2022/05/04 18:40:33;;;;;;;6.35;2.85;;;;;;;13.59;69.59;96140.75;10340406;28;96939;-66
2022/05/04 18:45:37;;;;;;;6.47;3.00;;;;;;;13.34;69.73;96163.56;10351812;28;96887;-66
2022/05/04 18:50:40;;;;;;;5.18;3.55;;;;;;;13.14;70.81;96163.94;10349921;28;96887;-65
2022/05/04 18:55:51;;;;;;;5.57;3.63;;;;;;;13.23;70.44;96170.81;10349242;28;98822;-66
2022/05/04 19:00:54;;;;;;;3.93;3.37;;;;;;;13.31;70.75;96175.25;10345688;28;98433;-66
2022/05/04 19:05:58;;;;;;;3.60;3.22;;;;;;;13.17;71.27;96189.84;10352052;28;97315;-65
2022/05/04 19:11:09;;;;;;;4.13;3.37;;;;;;;13.23;71.35;96178.69;10368973;28;100374;-65
2022/05/04 19:16:12;;;;;;;5.13;3.45;;;;;;;13.19;71.15;96187.06;10359569;28;97516;-66
2022/05/04 19:21:18;;;;;;;6.75;4.53;;;;;;;12.98;71.30;96179.69;10351872;28;98586;-66
2022/05/04 19:26:22;;;;;;;7.35;4.50;;;;;;;12.87;72.20;96194.75;10351733;28;97548;-66
2022/05/04 19:31:28;;;;;;;6.95;3.75;;;;;;;12.86;71.26;96187.84;10346405;28;102251;-65
2022/05/04 19:36:31;;;;;;;4.80;4.28;;;;;;;12.63;72.21;96197.31;10349084;28;96897;-66
2022/05/04 19:41:35;;;;;;;9.07;4.32;;;;;;;12.54;72.55;96214.00;10350908;28;98658;-65
2022/05/04 19:46:38;;;;;;;6.27;4.20;;;;;;;12.61;72.72;96222.88;10363062;28;96832;-65
2022/05/04 19:51:41;;;;;;;6.32;4.72;;;;;;;12.69;72.80;96228.94;10357228;28;98691;-64
2022/05/04 19:56:46;;;;;;;4.28;3.25;;;;;;;12.78;72.70;96226.34;10354707;28;97189;-66
2022/05/04 20:01:49;;;;;;;6.90;5.20;;;;;;;12.47;73.39;96234.78;10356831;28;96995;-65
2022/05/04 20:06:52;;;;;;;5.57;4.07;;;;;;;12.03;74.89;96243.63;10357063;28;97021;-65
2022/05/04 20:11:57;;;;;;;5.50;3.28;;;;;;;11.96;74.98;96247.84;10358858;28;96772;-66
2022/05/04 20:17:00;;;;;;;6.38;3.03;;;;;;;12.09;74.13;96253.50;10346556;28;96774;-66
2022/05/04 20:22:05;;;;;;;3.88;2.63;;;;;;;12.24;73.57;96250.28;10363142;28;97005;-66
2022/05/04 20:27:09;;;;;;;4.93;2.72;;;;;;;12.38;73.61;96261.94;10350971;28;96986;-66
2022/05/04 20:32:12;;;;;;;5.70;3.47;;;;;;;12.27;73.79;96260.44;10347400;28;97957;-66
2022/05/04 20:38:58;;;;;;;6.13;4.40;;;;;;;12.10;74.62;96270.00;10347057;28;96803;-66
2022/05/04 20:42:39;;;;;;;8.18;4.72;;;;;;;12.20;74.74;96280.38;10364190;28;96870;-65
2022/05/04 20:47:42;;;;;;;10.20;8.10;;;;;;;12.25;75.02;96267.63;10362908;28;97904;-65
2022/05/04 20:52:45;;;;;;;6.55;5.22;;;;;;;12.26;74.81;96269.25;10359599;28;96967;-68
2022/05/04 20:57:49;;;;;;;6.90;5.55;;;;;;;12.27;74.79;96265.69;10345872;28;97193;-65
2022/05/04 21:02:53;;;;;;;7.82;5.53;;;;;;;11.89;75.99;96265.97;10351086;28;98410;-64
2022/05/04 21:07:56;;;;;;;5.55;4.97;;;;;;;11.72;76.55;96267.66;10356010;28;98369;-66
2022/05/04 21:13:04;;;;;;;6.95;5.28;;;;;;;11.74;76.54;96260.50;10352584;28;97008;-66
2022/05/04 21:18:07;;;;;;;7.35;4.80;;;;;;;11.62;76.77;96266.94;10361673;28;101258;-66
2022/05/04 21:23:30;;;;;;;6.32;4.28;;;;;;;11.62;76.61;96266.94;10362204;27;98122;-66
2022/05/04 21:28:35;;;;;;;4.95;4.40;;;;;;;11.60;76.83;96266.28;10361099;28;96933;-66
2022/05/04 21:33:38;;;;;;;4.47;4.07;;;;;;;11.57;76.63;96268.38;10367805;28;97853;-66
2022/05/04 21:38:41;;;;;;;7.22;4.05;;;;;;;11.55;76.80;96272.00;10349538;28;97276;-66
2022/05/04 21:43:50;;;;;;;10.52;7.40;;;;;;;11.52;76.61;96281.94;10362986;28;96867;-64
2022/05/04 21:48:53;;;;;;;4.78;3.13;;;;;;;11.57;76.58;96279.66;10364542;28;101930;-66
2022/05/04 21:53:56;;;;;;;5.95;4.30;;;;;;;11.69;75.77;96285.47;10356503;28;97224;-66
2022/05/04 21:59:00;;;;;;;4.75;4.15;;;;;;;11.76;75.82;96290.91;10360033;28;97201;-66
2022/05/04 22:04:05;;;;;;;4.27;3.50;;;;;;;11.77;75.87;96288.16;10350280;28;96909;-66
2022/05/04 22:09:08;;;;;;;5.03;3.20;;;;;;;11.77;75.99;96284.72;10349843;28;99017;-66
2022/05/04 22:14:12;;;;;;;3.70;3.30;;;;;;;11.71;75.81;96286.97;10353741;28;98161;-66
2022/05/04 22:19:15;;;;;;;3.50;3.20;;;;;;;11.79;75.90;96286.19;10356256;28;98848;-66
2022/05/04 22:24:18;;;;;;;5.10;3.63;;;;;;;11.83;76.12;96294.56;10353327;28;96966;-66
2022/05/04 22:29:22;;;;;;;6.72;3.75;;;;;;;11.82;76.05;96288.50;10348789;28;97179;-66
2022/05/04 22:34:25;;;;;;;4.33;3.40;;;;;;;11.79;75.80;96293.22;10354860;28;97484;-66
2022/05/04 22:39:27;;;;;;;5.40;4.47;;;;;;;11.51;76.94;96296.78;10364430;28;96911;-66
2022/05/04 22:44:32;;;;;;;4.80;3.30;;;;;;;11.44;77.45;96294.97;10344045;28;98688;-66
2022/05/04 22:49:35;;;;;;;4.03;3.13;;;;;;;11.56;76.76;96291.13;10362917;28;97176;-66
2022/05/04 22:54:37;;;;;;;4.43;3.65;;;;;;;11.59;76.53;96308.28;10359626;28;96878;-66
2022/05/04 22:59:42;;;;;;;3.67;3.20;;;;;;;11.58;76.93;96304.88;10361195;28;98477;-66
2022/05/04 23:04:44;;;;;;;3.40;3.10;;;;;;;11.60;76.42;96300.28;10356544;28;96978;-66
2022/05/04 23:09:49;;;;;;;4.32;3.20;;;;;;;11.59;76.62;96287.38;10362517;28;96916;-66
2022/05/04 23:14:54;;;;;;;3.20;2.90;;;;;;;11.48;76.61;96296.28;10339065;28;96805;-66
2022/05/04 23:19:57;;;;;;;3.87;3.33;;;;;;;11.39;76.86;96292.78;10342413;28;96864;-66
2022/05/04 23:25:00;;;;;;;3.17;2.65;;;;;;;11.35;76.71;96292.25;10340181;28;96855;-66
2022/05/04 23:30:05;;;;;;;3.83;2.55;;;;;;;11.43;76.48;96293.31;10347726;28;99420;-66
2022/05/04 23:35:08;;;;;;;5.28;2.60;;;;;;;11.45;76.56;96280.88;10353003;28;97121;-66
2022/05/04 23:40:11;;;;;;;3.22;2.92;;;;;;;11.48;76.72;96289.25;10338573;28;96767;-66
2022/05/04 23:45:15;;;;;;;3.10;2.63;;;;;;;11.39;76.95;96291.97;10352174;28;96745;-66
2022/05/04 23:50:18;;;;;;;3.90;3.50;;;;;;;11.30;77.18;96289.25;10342657;28;96795;-66
2022/05/04 23:55:22;;;;;;;4.72;3.55;;;;;;;11.26;77.30;96282.69;10373688;28;96860;-66
